Time;durP1;ratioP1;P1;durP2;ratioP2;P2;SDS_P1;SDS_P2;PMS_P1;PMS_P2;Temp;Humidity;BMP_temperature;BMP_pressure;BME280_temperature;BME280_humidity;BME280_pressure;Samples;Min_cycle;Max_cycle;Signal;HPM_P1;HPM_P2
2022/10/04 00:01:52;;;;;;;19.20;10.77;;;;;;;21.49;100.00;102187.03;4997778;28;20329;-52
2022/10/04 00:04:29;;;;;;;19.35;10.27;;;;;;;21.57;100.00;102188.59;4991002;28;20273;-53
2022/10/04 00:07:05;;;;;;;23.73;11.23;;;;;;;21.68;100.00;102187.78;5010455;28;20030;-51
2022/10/04 00:09:54;;;;;;;24.37;11.67;;;;;;;21.09;100.00;102187.72;5004677;28;20316;-51
2022/10/04 00:12:27;;;;;;;28.50;11.87;;;;;;;20.86;100.00;102183.88;4992057;28;20415;-53
2022/10/04 00:14:56;;;;;;;27.73;11.73;;;;;;;20.84;100.00;102188.72;5002460;28;20276;-52
2022/10/04 00:17:26;;;;;;;17.73;11.00;;;;;;;21.46;100.00;102190.25;5000323;28;20268;-53
2022/10/04 00:19:53;;;;;;;27.50;12.53;;;;;;;21.14;100.00;102175.06;5016038;28;20282;-55
2022/10/04 00:22:27;;;;;;;20.87;11.40;;;;;;;20.45;100.00;102178.97;4992321;28;20265;-54
2022/10/04 00:25:06;;;;;;;26.07;12.30;;;;;;;20.79;100.00;102173.06;4998772;28;20284;-54
2022/10/04 00:27:34;;;;;;;22.53;11.90;;;;;;;21.12;100.00;102173.63;5003456;28;20269;-50
2022/10/04 00:30:03;;;;;;;22.63;12.20;;;;;;;20.87;100.00;102171.94;5010845;28;20269;-54
2022/10/04 00:33:02;;;;;;;23.33;12.43;;;;;;;21.19;100.00;102166.19;5026684;28;20337;-54
2022/10/04 00:35:28;;;;;;;23.70;12.03;;;;;;;20.84;100.00;102164.25;5003151;28;20344;-54
2022/10/04 00:38:05;;;;;;;23.42;12.38;;;;;;;21.00;100.00;102162.75;4993374;28;20277;-55
2022/10/04 00:41:02;;;;;;;25.87;12.50;;;;;;;21.00;100.00;102158.16;5012113;28;20050;-53
2022/10/04 00:43:41;;;;;;;20.10;11.33;;;;;;;20.70;100.00;102156.25;4991628;28;20280;-54
2022/10/04 00:46:17;;;;;;;24.47;12.77;;;;;;;20.62;100.00;102151.16;4992846;28;20284;-51
2022/10/04 00:48:54;;;;;;;25.47;12.87;;;;;;;20.70;100.00;102148.09;4991973;28;20264;-50
2022/10/04 00:51:43;;;;;;;22.07;12.20;;;;;;;20.98;100.00;102143.94;4993465;28;20314;-48
2022/10/04 00:54:16;;;;;;;21.83;12.27;;;;;;;20.54;100.00;102146.06;4997252;28;20090;-55
2022/10/04 00:56:50;;;;;;;23.30;12.23;;;;;;;20.46;100.00;102142.59;4986085;28;20271;-53
2022/10/04 00:59:27;;;;;;;30.63;12.17;;;;;;;20.71;100.00;102138.88;4992690;28;20325;-55
2022/10/04 01:02:19;;;;;;;20.00;11.97;;;;;;;20.44;100.00;102147.41;4997397;28;20280;-53
2022/10/04 01:04:50;;;;;;;26.80;12.37;;;;;;;20.52;100.00;102137.28;4998668;28;20273;-50
2022/10/04 01:07:21;;;;;;;22.13;11.83;;;;;;;20.90;100.00;102142.41;4992590;28;20270;-52
2022/10/04 01:09:55;;;;;;;25.67;12.43;;;;;;;21.00;100.00;102136.38;4990661;28;20297;-53
2022/10/04 01:12:43;;;;;;;24.63;11.57;;;;;;;20.51;100.00;102130.19;4989117;28;20268;-54
2022/10/04 01:15:27;;;;;;;21.37;9.87;;;;;;;20.96;100.00;102118.84;4990034;28;20297;-53
2022/10/04 01:18:28;;;;;;;18.63;11.23;;;;;;;20.56;100.00;102122.19;4992454;28;20272;-55
2022/10/04 01:21:19;;;;;;;20.93;11.47;;;;;;;21.05;100.00;102132.94;5021336;28;20301;-53
2022/10/04 01:23:57;;;;;;;25.53;11.30;;;;;;;20.31;100.00;102129.41;4999396;28;20337;-52
2022/10/04 01:26:29;;;;;;;30.80;12.30;;;;;;;20.57;100.00;102121.13;4995041;28;20281;-53
2022/10/04 01:29:02;;;;;;;21.90;11.73;;;;;;;20.69;100.00;102121.97;4999501;28;20260;-53
2022/10/04 01:31:29;;;;;;;22.20;12.60;;;;;;;21.19;100.00;102126.22;4998463;28;20269;-55
2022/10/04 01:33:56;;;;;;;23.50;13.23;;;;;;;20.37;100.00;102116.81;4997998;28;20292;-52
2022/10/04 01:36:22;;;;;;;22.52;12.63;;;;;;;20.90;100.00;102109.78;5011096;28;20276;-52
2022/10/04 01:38:49;;;;;;;28.30;13.43;;;;;;;20.68;100.00;102108.63;4993400;28;20098;-54
2022/10/04 01:41:20;;;;;;;25.23;14.17;;;;;;;20.23;100.00;102109.88;5020661;28;20039;-53
2022/10/04 01:43:51;;;;;;;26.70;14.27;;;;;;;20.21;100.00;102102.00;5001840;28;20284;-51
2022/10/04 01:46:26;;;;;;;21.87;13.40;;;;;;;20.96;100.00;102099.03;4992113;28;20327;-55
2022/10/04 01:48:55;;;;;;;29.43;13.43;;;;;;;20.13;100.00;102092.28;5010760;28;20288;-52
2022/10/04 01:51:26;;;;;;;23.63;14.43;;;;;;;20.37;100.00;102086.94;4990109;28;20288;-52
2022/10/04 01:54:18;;;;;;;28.73;15.00;;;;;;;20.30;100.00;102067.19;5018492;28;20266;-54
2022/10/04 01:57:12;;;;;;;25.10;13.57;;;;;;;20.54;100.00;102064.53;4997340;28;20328;-51
2022/10/04 01:59:49;;;;;;;29.57;13.70;;;;;;;20.74;100.00;102062.31;5006064;28;20265;-51
2022/10/04 02:02:22;;;;;;;25.25;13.27;;;;;;;19.86;100.00;102060.00;4996764;28;20273;-54
2022/10/04 02:04:53;;;;;;;23.07;12.73;;;;;;;20.46;100.00;102062.97;5004052;28;20041;-50
2022/10/04 02:07:20;;;;;;;22.97;12.30;;;;;;;20.69;100.00;102058.66;4984618;28;20272;-53
2022/10/04 02:09:53;;;;;;;27.17;13.63;;;;;;;19.56;100.00;102068.91;4999379;28;20264;-53
2022/10/04 02:12:19;;;;;;;20.63;12.80;;;;;;;19.89;100.00;102067.69;4995446;28;20269;-52
2022/10/04 02:14:51;;;;;;;24.80;13.13;;;;;;;19.67;100.00;102063.78;4997303;28;20287;-51
2022/10/04 02:17:26;;;;;;;25.07;12.37;;;;;;;20.05;100.00;102057.25;4998197;28;20047;-50
2022/10/04 02:19:52;;;;;;;25.40;12.63;;;;;;;19.74;100.00;102054.53;4991926;28;20256;-51
2022/10/04 02:22:19;;;;;;;24.58;12.80;;;;;;;19.98;100.00;102042.97;5003778;28;20280;-53
2022/10/04 02:24:48;;;;;;;27.20;12.40;;;;;;;20.18;100.00;102032.66;4990176;28;20043;-49
2022/10/04 02:27:14;;;;;;;27.43;13.50;;;;;;;19.75;100.00;102039.03;5000814;28;20268;-51
2022/10/04 02:29:40;;;;;;;25.88;12.90;;;;;;;19.83;100.00;102032.47;4996489;28;20291;-52
2022/10/04 02:34:53;;;;;;;25.90;13.57;;;;;;;19.80;100.00;102022.09;5002582;28;20068;-52
2022/10/04 02:37:25;;;;;;;29.30;14.07;;;;;;;20.32;100.00;102022.41;5001680;28;20276;-51
2022/10/04 02:40:12;;;;;;;24.90;13.70;;;;;;;19.39;100.00;102019.03;5003357;28;20284;-54
2022/10/04 02:42:59;;;;;;;23.33;13.60;;;;;;;19.17;100.00;102016.78;5021241;28;20286;-51
2022/10/04 02:45:38;;;;;;;24.02;14.05;;;;;;;19.25;100.00;102008.31;5003365;28;20074;-53
2022/10/04 02:48:15;;;;;;;27.13;13.90;;;;;;;19.01;100.00;101994.59;5015327;28;20042;-50
2022/10/04 02:50:49;;;;;;;25.23;13.93;;;;;;;19.53;100.00;101982.53;5007792;28;20280;-50
2022/10/04 02:53:25;;;;;;;24.30;14.57;;;;;;;18.97;100.00;101979.81;4998594;28;20351;-54
2022/10/04 02:55:53;;;;;;;33.57;16.30;;;;;;;18.75;100.00;101980.22;5004533;28;20287;-53
2022/10/04 02:58:22;;;;;;;28.67;15.43;;;;;;;19.12;100.00;101981.34;4994715;28;20294;-49
2022/10/04 03:00:50;;;;;;;29.00;15.20;;;;;;;19.69;100.00;101975.66;5015427;28;20356;-54
2022/10/04 03:03:26;;;;;;;27.83;15.27;;;;;;;18.80;100.00;101982.28;5004684;28;20276;-53
2022/10/04 03:06:04;;;;;;;25.88;15.00;;;;;;;19.12;100.00;101978.63;5011007;28;20291;-54
2022/10/04 03:08:35;;;;;;;28.30;14.23;;;;;;;19.01;100.00;101991.03;5014719;28;20088;-52
2022/10/04 03:11:03;;;;;;;33.73;15.97;;;;;;;19.15;100.00;101994.47;5014619;28;20265;-51
2022/10/04 03:13:30;;;;;;;26.57;15.10;;;;;;;19.35;100.00;101983.38;5006801;28;20269;-53
2022/10/04 03:15:56;;;;;;;31.23;16.00;;;;;;;19.30;100.00;101975.94;5008912;28;20269;-54
2022/10/04 03:18:22;;;;;;;23.70;14.47;;;;;;;19.26;100.00;101982.88;5009228;28;20298;-53
2022/10/04 03:20:48;;;;;;;24.75;13.80;;;;;;;18.66;100.00;101970.69;5024092;28;20265;-52
2022/10/04 03:23:17;;;;;;;28.05;15.50;;;;;;;18.66;100.00;101962.56;5016031;28;20039;-53
2022/10/04 03:26:30;;;;;;;28.67;15.73;;;;;;;18.92;100.00;101971.53;5029471;28;20031;-53
2022/10/04 03:28:57;;;;;;;27.97;15.23;;;;;;;18.40;100.00;101966.38;5006268;28;20276;-55
2022/10/04 03:31:25;;;;;;;34.63;16.40;;;;;;;18.88;100.00;101964.88;4997459;28;20357;-55
2022/10/04 03:33:54;;;;;;;35.13;15.97;;;;;;;18.41;100.00;101960.72;4993131;28;20277;-51
2022/10/04 03:36:21;;;;;;;31.70;15.40;;;;;;;18.71;100.00;101960.06;4997181;28;20261;-53
2022/10/04 03:38:49;;;;;;;35.97;15.80;;;;;;;18.26;100.00;101949.41;4988820;28;20293;-54
2022/10/04 03:41:15;;;;;;;29.37;15.23;;;;;;;18.84;100.00;101945.53;5002895;28;20345;-53
2022/10/04 03:43:48;;;;;;;29.83;16.73;;;;;;;18.11;100.00;101934.28;5013485;28;20272;-51
2022/10/04 03:46:16;;;;;;;40.13;15.77;;;;;;;17.75;100.00;101931.16;5000259;28;20043;-51
2022/10/04 03:48:53;;;;;;;30.07;14.40;;;;;;;18.02;100.00;101936.44;4993758;28;20292;-54
2022/10/04 03:51:23;;;;;;;27.63;15.10;;;;;;;18.86;100.00;101934.47;4990984;28;20277;-55
2022/10/04 03:53:52;;;;;;;31.27;15.27;;;;;;;18.27;100.00;101932.09;4986918;28;20274;-53
2022/10/04 03:56:28;;;;;;;35.23;17.37;;;;;;;18.56;100.00;101937.88;5006727;28;20290;-50
2022/10/04 03:58:54;;;;;;;30.58;14.70;;;;;;;18.70;100.00;101942.13;5012956;28;20331;-54
2022/10/04 04:01:46;;;;;;;24.08;13.80;;;;;;;18.70;100.00;101925.88;4997972;28;20042;-53
2022/10/04 04:04:17;;;;;;;24.93;14.53;;;;;;;18.09;100.00;101930.97;5003157;28;20050;-54
2022/10/04 04:06:59;;;;;;;31.40;15.77;;;;;;;18.14;100.00;101930.31;5007694;28;20316;-52
2022/10/04 04:09:38;;;;;;;32.53;16.17;;;;;;;18.19;100.00;101936.72;4989762;28;20336;-53
2022/10/04 04:12:17;;;;;;;27.30;14.50;;;;;;;18.16;100.00;101929.03;5011710;28;20288;-53
2022/10/04 04:14:45;;;;;;;27.93;15.87;;;;;;;18.52;100.00;101936.69;5006645;28;20275;-53
2022/10/04 04:17:18;;;;;;;33.67;15.67;;;;;;;17.75;100.00;101930.31;4989127;28;20378;-54
2022/10/04 04:19:45;;;;;;;36.00;15.90;;;;;;;18.03;100.00;101937.25;5006623;28;20265;-51
2022/10/04 04:22:17;;;;;;;39.20;16.47;;;;;;;18.04;100.00;101936.22;5003989;28;20276;-53
2022/10/04 04:24:44;;;;;;;26.33;16.17;;;;;;;17.94;100.00;101936.66;4998863;28;20328;-53
2022/10/04 04:27:15;;;;;;;31.33;16.83;;;;;;;17.94;100.00;101923.13;5000702;28;20275;-51
2022/10/04 04:29:50;;;;;;;30.10;16.70;;;;;;;17.92;100.00;101919.81;5000383;28;20265;-54
2022/10/04 04:32:30;;;;;;;39.60;16.53;;;;;;;17.62;100.00;101920.41;5006108;28;20274;-52
2022/10/04 04:34:59;;;;;;;37.53;17.23;;;;;;;17.66;100.00;101915.38;4999781;28;20299;-52
2022/10/04 04:37:25;;;;;;;34.03;17.57;;;;;;;18.40;100.00;101921.13;5006745;28;20302;-50
2022/10/04 04:39:54;;;;;;;30.35;16.35;;;;;;;17.88;100.00;101924.81;5015886;28;20280;-55
2022/10/04 04:42:31;;;;;;;30.50;15.37;;;;;;;17.67;100.00;101927.88;4992221;28;20065;-53
2022/10/04 04:45:01;;;;;;;34.93;16.40;;;;;;;18.20;100.00;101930.25;4992211;28;20311;-52
2022/10/04 04:47:41;;;;;;;33.20;16.87;;;;;;;18.00;100.00;101921.44;4989258;28;20273;-53
2022/10/04 04:50:14;;;;;;;37.77;19.47;;;;;;;17.57;100.00;101904.84;5008853;28;20273;-52
2022/10/04 04:52:43;;;;;;;40.23;17.40;;;;;;;17.50;100.00;101906.72;5002454;28;20292;-55
2022/10/04 04:55:21;;;;;;;31.70;15.70;;;;;;;18.02;100.00;101906.66;5006825;28;20352;-53
2022/10/04 04:57:54;;;;;;;31.30;15.10;;;;;;;17.80;100.00;101916.97;4994448;28;20354;-52
2022/10/04 05:00:25;;;;;;;42.57;22.03;;;;;;;17.99;100.00;101917.88;5005530;28;20330;-53
2022/10/04 05:02:56;;;;;;;37.37;18.43;;;;;;;17.80;100.00;101911.56;4993186;28;20292;-50
2022/10/04 05:05:27;;;;;;;34.63;20.53;;;;;;;18.13;100.00;101920.53;5003914;28;20294;-51
2022/10/04 05:08:11;;;;;;;38.03;19.37;;;;;;;17.97;100.00;101919.16;4990202;28;20269;-51
2022/10/04 05:10:51;;;;;;;35.03;16.67;;;;;;;17.91;100.00;101918.16;5006369;28;20265;-52
2022/10/04 05:13:18;;;;;;;36.33;18.57;;;;;;;17.73;100.00;101913.47;4994376;28;20265;-54
2022/10/04 05:15:53;;;;;;;32.13;17.10;;;;;;;17.74;100.00;101907.00;4995489;28;20282;-52
2022/10/04 05:18:28;;;;;;;32.20;17.33;;;;;;;17.75;100.00;101909.50;5005405;28;20276;-52
2022/10/04 05:20:56;;;;;;;32.50;17.27;;;;;;;17.39;100.00;101916.34;5000168;28;20299;-54
2022/10/04 05:23:22;;;;;;;34.67;15.97;;;;;;;17.71;100.00;101912.84;5005536;28;20260;-55
2022/10/04 05:25:49;;;;;;;38.10;17.13;;;;;;;17.75;100.00;101914.06;5002425;28;20281;-53
2022/10/04 05:28:17;;;;;;;35.63;16.87;;;;;;;18.42;100.00;101924.44;5015734;28;20039;-53
2022/10/04 05:31:05;;;;;;;41.30;19.33;;;;;;;17.24;100.00;101916.63;4992714;28;20272;-51
2022/10/04 05:33:45;;;;;;;33.63;17.57;;;;;;;17.44;100.00;101921.13;4990340;28;20280;-57
2022/10/04 05:36:12;;;;;;;34.93;17.73;;;;;;;17.83;100.00;101924.66;4992190;28;20269;-52
2022/10/04 05:38:48;;;;;;;34.93;18.87;;;;;;;17.75;100.00;101930.31;5009196;28;20284;-54
2022/10/04 05:41:25;;;;;;;31.83;17.63;;;;;;;17.83;100.00;101932.78;5001233;28;20272;-54
2022/10/04 05:43:50;;;;;;;34.63;18.93;;;;;;;17.76;100.00;101932.81;5000759;28;20273;-52
2022/10/04 05:46:17;;;;;;;30.03;16.60;;;;;;;18.05;100.00;101935.16;5002460;28;20391;-53
2022/10/04 05:48:45;;;;;;;35.10;16.80;;;;;;;17.98;100.00;101934.34;4996862;28;20069;-53
2022/10/04 05:51:18;;;;;;;41.17;17.57;;;;;;;18.13;100.00;101932.19;5012584;28;20295;-53
2022/10/04 05:53:45;;;;;;;30.17;16.67;;;;;;;18.30;100.00;101929.75;5011600;28;20272;-54
2022/10/04 05:56:20;;;;;;;30.23;16.37;;;;;;;17.38;100.00;101927.41;4991914;28;20363;-55
2022/10/04 05:59:20;;;;;;;33.17;17.70;;;;;;;17.51;100.00;101924.59;4999825;28;20345;-55
2022/10/04 06:01:56;;;;;;;36.13;16.93;;;;;;;17.43;100.00;101932.97;5001607;28;20297;-52
2022/10/04 06:04:50;;;;;;;30.35;17.27;;;;;;;17.19;100.00;101929.94;5011718;28;20269;-53
2022/10/04 06:07:34;;;;;;;33.90;17.33;;;;;;;17.54;100.00;101926.06;5002929;28;20041;-54
2022/10/04 06:10:24;;;;;;;29.93;17.30;;;;;;;17.29;100.00;101919.50;5003664;28;20284;-53
2022/10/04 06:12:52;;;;;;;33.27;17.37;;;;;;;17.30;100.00;101926.59;5012523;28;20280;-51
2022/10/04 06:15:42;;;;;;;34.53;17.07;;;;;;;17.92;100.00;101927.94;4992532;28;20261;-54
2022/10/04 06:18:21;;;;;;;35.70;18.37;;;;;;;17.77;100.00;101923.66;5000640;28;20288;-55
2022/10/04 06:20:49;;;;;;;33.40;16.73;;;;;;;17.64;100.00;101918.28;4997120;28;20326;-52
2022/10/04 06:23:17;;;;;;;32.93;16.43;;;;;;;17.85;100.00;101929.84;5007512;28;20322;-56
2022/10/04 06:26:02;;;;;;;40.57;18.33;;;;;;;17.30;100.00;101932.00;5003996;28;20281;-54
2022/10/04 06:28:35;;;;;;;39.40;17.83;;;;;;;18.19;100.00;101927.78;4996879;28;20276;-54
2022/10/04 06:31:25;;;;;;;38.67;17.60;;;;;;;18.03;100.00;101929.16;4997134;28;20285;-54
2022/10/04 06:34:23;;;;;;;34.40;17.67;;;;;;;17.79;100.00;101915.31;4990661;28;20340;-50
2022/10/04 06:37:08;;;;;;;29.33;15.77;;;;;;;18.33;100.00;101923.06;4991872;28;20264;-55
2022/10/04 06:39:51;;;;;;;40.47;18.37;;;;;;;17.68;100.00;101914.13;4997067;28;20077;-55
2022/10/04 06:42:33;;;;;;;35.67;15.53;;;;;;;18.11;100.00;101914.53;4994947;28;20291;-54
2022/10/04 06:45:38;;;;;;;34.40;16.63;;;;;;;18.19;100.00;101912.34;4999443;28;20308;-55
2022/10/04 06:48:31;;;;;;;36.20;17.20;;;;;;;17.96;100.00;101914.78;4997055;28;20295;-55
2022/10/04 06:51:25;;;;;;;32.47;16.07;;;;;;;17.74;100.00;101915.13;4986218;28;20269;-52
2022/10/04 06:54:11;;;;;;;32.47;16.97;;;;;;;18.13;100.00;101921.34;5008967;28;20288;-54
2022/10/04 06:56:47;;;;;;;31.83;16.57;;;;;;;17.52;100.00;101912.75;4993112;28;20300;-52
2022/10/04 06:59:34;;;;;;;32.05;16.00;;;;;;;17.37;100.00;101917.63;5004906;28;20360;-53
2022/10/04 07:02:11;;;;;;;40.40;16.52;;;;;;;17.77;100.00;101917.41;4991451;28;20084;-55
2022/10/04 07:05:00;;;;;;;30.07;16.00;;;;;;;17.60;100.00;101912.50;4989610;28;20050;-53
2022/10/04 07:07:40;;;;;;;31.43;16.93;;;;;;;17.86;100.00;101915.25;5002600;28;20035;-54
2022/10/04 07:10:43;;;;;;;35.20;16.43;;;;;;;17.31;100.00;101895.81;5005507;28;20261;-49
2022/10/04 07:13:21;;;;;;;28.20;14.90;;;;;;;17.15;100.00;101893.59;4985935;28;20260;-52
2022/10/04 07:15:56;;;;;;;33.90;16.23;;;;;;;17.60;100.00;101901.69;4989799;28;20281;-51
2022/10/04 07:18:28;;;;;;;28.10;14.50;;;;;;;18.19;100.00;101904.22;4995928;28;20279;-56
2022/10/04 07:21:07;;;;;;;30.47;14.50;;;;;;;17.22;100.00;101893.56;5008028;28;20329;-51
2022/10/04 07:23:52;;;;;;;31.60;14.37;;;;;;;18.08;100.00;101902.25;4999244;28;20268;-55
2022/10/04 07:26:27;;;;;;;33.33;15.03;;;;;;;17.50;100.00;101901.31;4994626;28;20448;-54
2022/10/04 07:31:46;;;;;;;28.03;13.73;;;;;;;17.39;100.00;101896.59;5014360;28;20276;-54
2022/10/04 07:34:37;;;;;;;27.37;13.20;;;;;;;18.69;100.00;101905.25;5006150;28;20330;-55
2022/10/04 07:37:11;;;;;;;25.83;13.23;;;;;;;17.75;100.00;101914.06;5014448;28;20337;-53
2022/10/04 07:40:02;;;;;;;27.47;13.43;;;;;;;17.85;100.00;101906.31;4992250;28;20281;-53
2022/10/04 07:42:35;;;;;;;34.03;13.07;;;;;;;18.02;100.00;101901.25;5000974;28;20273;-54
2022/10/04 07:45:11;;;;;;;26.50;12.73;;;;;;;18.11;100.00;101907.22;5004979;28;20327;-52
2022/10/04 07:47:36;;;;;;;26.20;12.40;;;;;;;18.93;100.00;101905.44;5005725;28;20276;-55
2022/10/04 07:50:35;;;;;;;22.20;10.57;;;;;;;18.54;100.00;101910.19;4989881;28;20280;-52
2022/10/04 07:53:11;;;;;;;24.53;11.00;;;;;;;18.45;100.00;101913.19;4996439;28;20296;-53
2022/10/04 07:56:00;;;;;;;23.00;10.35;;;;;;;18.35;100.00;101918.28;4996662;28;20253;-53
2022/10/04 07:58:37;;;;;;;21.93;11.37;;;;;;;18.95;100.00;101910.59;5016943;28;20039;-55
2022/10/04 08:01:37;;;;;;;21.75;11.13;;;;;;;19.28;100.00;101904.81;4996372;28;20270;-53
2022/10/04 08:04:18;;;;;;;23.57;9.33;;;;;;;19.95;100.00;101910.41;4996102;28;20059;-53
2022/10/04 08:07:00;;;;;;;18.43;9.03;;;;;;;19.87;100.00;101901.50;4991088;28;20383;-51
2022/10/04 08:09:35;;;;;;;21.53;9.77;;;;;;;19.46;100.00;101903.13;4995212;28;20276;-53
2022/10/04 08:12:22;;;;;;;22.33;9.83;;;;;;;19.40;100.00;101910.31;5005406;28;20300;-50
2022/10/04 08:14:54;;;;;;;22.17;9.83;;;;;;;19.61;100.00;101914.41;5020695;28;20277;-52
2022/10/04 08:17:40;;;;;;;16.97;8.57;;;;;;;19.76;100.00;101911.28;5001382;28;20265;-58
2022/10/04 08:20:45;;;;;;;21.03;8.13;;;;;;;19.10;100.00;101907.53;4998702;28;20367;-55
2022/10/04 08:23:31;;;;;;;18.27;8.70;;;;;;;19.96;100.00;101910.19;5003304;28;20284;-56
2022/10/04 08:26:09;;;;;;;16.27;9.10;;;;;;;19.85;100.00;101909.06;5004853;28;20348;-54
2022/10/04 08:31:47;;;;;;;16.80;8.00;;;;;;;19.89;100.00;101918.38;5015365;28;20279;-55
2022/10/04 08:34:43;;;;;;;21.10;9.53;;;;;;;20.99;100.00;101919.91;4994810;28;20311;-55
2022/10/04 08:37:21;;;;;;;15.50;7.93;;;;;;;20.62;100.00;101934.56;5004681;28;20046;-53
2022/10/04 08:40:18;;;;;;;15.40;8.00;;;;;;;21.10;100.00;101914.69;4990514;28;20038;-53
2022/10/04 08:43:14;;;;;;;14.48;7.80;;;;;;;21.28;100.00;101911.78;5012603;28;20033;-49
2022/10/04 08:45:58;;;;;;;15.57;7.37;;;;;;;22.83;100.00;101912.72;5013191;28;20038;-53
2022/10/04 08:49:05;;;;;;;18.17;7.63;;;;;;;22.25;100.00;101924.66;4997311;28;20042;-52
2022/10/04 08:51:59;;;;;;;12.43;6.43;;;;;;;22.82;100.00;101921.97;4997626;28;20055;-55
2022/10/04 08:54:57;;;;;;;14.30;7.50;;;;;;;23.57;100.00;101927.84;5000082;28;20091;-53
2022/10/04 08:57:32;;;;;;;15.80;7.00;;;;;;;24.12;100.00;101925.06;4999122;28;20031;-51
2022/10/04 09:00:09;;;;;;;21.83;7.10;;;;;;;23.42;100.00;101933.13;4996295;28;20043;-55
2022/10/04 09:02:53;;;;;;;21.47;7.63;;;;;;;24.38;100.00;101929.91;4992366;28;20041;-56
2022/10/04 09:05:55;;;;;;;19.97;7.50;;;;;;;24.13;100.00;101925.91;5010549;28;20045;-51
2022/10/04 09:08:27;;;;;;;16.73;6.87;;;;;;;25.05;95.55;101917.44;5000000;28;20046;-53
2022/10/04 09:11:04;;;;;;;16.87;6.57;;;;;;;24.71;93.47;101931.50;5006215;28;20043;-55
2022/10/04 09:13:44;;;;;;;11.70;6.27;;;;;;;25.10;91.41;101916.66;4989790;28;20038;-56
2022/10/04 09:16:14;;;;;;;17.60;6.30;;;;;;;25.60;86.97;101928.06;5004312;28;20031;-53
2022/10/04 09:19:17;;;;;;;9.90;5.93;;;;;;;25.60;86.47;101925.31;4976241;28;20042;-54
2022/10/04 09:21:45;;;;;;;15.73;6.10;;;;;;;26.49;79.60;101928.88;5016149;28;20031;-52
2022/10/04 09:24:33;;;;;;;14.30;5.27;;;;;;;26.06;79.95;101931.88;5000610;28;20060;-56
2022/10/04 09:27:11;;;;;;;13.93;6.00;;;;;;;25.70;80.11;101923.66;5004734;28;20047;-55
2022/10/04 09:30:05;;;;;;;11.97;5.77;;;;;;;26.77;76.92;101930.19;4994412;28;20034;-55
2022/10/04 09:32:52;;;;;;;15.50;5.70;;;;;;;25.83;82.02;101922.31;4997487;28;20057;-56
2022/10/04 09:35:20;;;;;;;12.55;6.05;;;;;;;26.75;75.34;101921.38;5008418;28;20030;-54
2022/10/04 09:38:04;;;;;;;11.03;5.33;;;;;;;26.53;73.85;101927.22;5013243;28;20100;-52
2022/10/04 09:41:09;;;;;;;12.93;6.67;;;;;;;26.89;73.18;101929.06;4999234;28;20043;-53
2022/10/04 09:44:13;;;;;;;9.37;4.87;;;;;;;26.41;74.12;101926.69;4998135;28;20104;-54
2022/10/04 09:46:54;;;;;;;12.17;5.43;;;;;;;27.16;70.17;101925.09;4999125;28;20038;-56
2022/10/04 09:49:58;;;;;;;16.10;6.47;;;;;;;27.85;67.94;101932.66;4998333;28;20049;-53
2022/10/04 09:52:39;;;;;;;14.93;5.57;;;;;;;29.35;61.67;101928.31;4985019;28;20051;-54
2022/10/04 09:55:40;;;;;;;12.40;5.30;;;;;;;28.84;63.72;101916.88;4985006;28;20035;-54
2022/10/04 09:58:35;;;;;;;13.10;5.73;;;;;;;27.79;64.07;101925.56;4967780;28;20053;-58
2022/10/04 10:01:29;;;;;;;17.17;5.27;;;;;;;28.40;61.49;101923.41;4953055;28;20036;-53
2022/10/04 10:04:04;;;;;;;13.53;5.73;;;;;;;27.91;62.73;101940.59;4950574;28;20028;-56
2022/10/04 10:07:05;;;;;;;12.27;5.30;;;;;;;27.41;65.89;101917.81;4968516;28;20042;-57
2022/10/04 10:16:04;;;;;;;15.50;5.60;;;;;;;28.54;60.02;101912.50;4950480;28;20039;-53
2022/10/04 10:18:39;;;;;;;12.33;5.30;;;;;;;29.41;57.98;101907.88;4964218;28;20053;-58
2022/10/04 10:21:17;;;;;;;12.35;5.10;;;;;;;30.16;55.67;101901.72;4965722;28;20032;-54
2022/10/04 10:24:15;;;;;;;11.27;4.55;;;;;;;29.91;55.08;101910.09;4957467;28;20096;-53
2022/10/04 10:27:18;;;;;;;11.65;4.47;;;;;;;29.85;53.73;101922.34;4968440;28;20040;-56
2022/10/04 10:30:20;;;;;;;10.57;4.22;;;;;;;30.45;52.77;101918.00;4959362;28;20070;-54
2022/10/04 10:32:54;;;;;;;12.65;4.43;;;;;;;30.25;54.13;101919.19;4981061;28;20047;-54
2022/10/04 10:35:59;;;;;;;10.95;5.22;;;;;;;29.57;54.75;101921.41;4961347;28;20022;-55
2022/10/04 10:38:56;;;;;;;10.85;4.63;;;;;;;30.14;52.29;101937.06;4954748;28;20089;-55
2022/10/04 10:41:43;;;;;;;11.20;4.75;;;;;;;30.71;50.93;101930.50;4965686;28;20044;-55
2022/10/04 10:44:38;;;;;;;14.70;5.03;;;;;;;30.14;51.57;101934.31;4954576;28;20040;-57
2022/10/04 10:47:29;;;;;;;9.05;4.47;;;;;;;31.37;49.11;101932.97;4967587;28;20100;-55
2022/10/04 10:50:57;;;;;;;14.75;5.13;;;;;;;31.63;45.95;101931.56;4952454;28;20035;-57
2022/10/04 10:53:44;;;;;;;17.75;4.88;;;;;;;32.72;44.15;101927.59;4957763;28;20052;-56
2022/10/04 10:56:29;;;;;;;11.02;4.78;;;;;;;32.28;44.27;101921.06;4967780;28;20051;-53
2022/10/04 10:59:26;;;;;;;11.90;4.72;;;;;;;31.66;46.00;101906.06;4970966;28;20036;-57
2022/10/04 11:02:35;;;;;;;8.88;5.05;;;;;;;31.57;46.11;101917.84;4958370;28;20040;-55
2022/10/04 11:05:24;;;;;;;10.05;4.10;;;;;;;31.42;46.54;101910.75;4954884;28;20044;-57
2022/10/04 11:08:19;;;;;;;18.70;4.25;;;;;;;30.93;48.25;101899.41;4958921;28;20126;-54
2022/10/04 11:11:23;;;;;;;12.73;4.85;;;;;;;30.89;48.59;101896.44;4978270;28;20036;-56
2022/10/04 11:14:15;;;;;;;13.13;4.85;;;;;;;30.92;47.06;101897.78;4961370;28;20087;-55
2022/10/04 11:17:19;;;;;;;11.20;3.92;;;;;;;31.95;44.68;101900.09;4961071;28;20032;-54
2022/10/04 11:20:17;;;;;;;10.93;4.43;;;;;;;32.24;45.05;101878.56;4958637;28;20031;-53
2022/10/04 11:23:27;;;;;;;10.98;4.00;;;;;;;31.90;43.12;101895.50;4960641;28;20062;-56
2022/10/04 11:26:21;;;;;;;9.30;3.70;;;;;;;31.85;43.48;101889.28;4970480;28;20079;-55
2022/10/04 11:29:02;;;;;;;10.45;4.45;;;;;;;30.93;44.71;101893.06;4960059;28;20043;-52
2022/10/04 11:31:53;;;;;;;7.68;3.30;;;;;;;32.12;42.98;101871.69;4952820;28;20035;-55
2022/10/04 11:34:49;;;;;;;9.05;3.53;;;;;;;32.52;42.60;101872.81;4970889;28;20066;-56
2022/10/04 11:37:56;;;;;;;6.78;3.78;;;;;;;31.26;45.00;101874.38;4960750;28;20043;-57
2022/10/04 11:40:38;;;;;;;10.05;4.20;;;;;;;31.45;45.48;101868.66;4965503;28;20037;-57
2022/10/04 11:43:19;;;;;;;7.07;3.28;;;;;;;31.47;45.99;101862.81;4969502;28;20038;-54
2022/10/04 11:46:10;;;;;;;12.93;4.32;;;;;;;29.82;48.40;101854.03;4957928;28;20073;-55
2022/10/04 11:49:07;;;;;;;8.38;3.88;;;;;;;29.11;50.08;101848.53;4957767;28;20051;-52
2022/10/04 11:51:57;;;;;;;9.55;4.05;;;;;;;29.50;51.60;101846.59;4990664;28;20055;-51
2022/10/04 11:54:34;;;;;;;7.13;3.50;;;;;;;29.17;48.58;101852.84;4997067;28;20113;-55
2022/10/04 11:57:24;;;;;;;8.05;3.63;;;;;;;29.91;47.46;101840.38;5003076;28;20029;-55
2022/10/04 12:00:03;;;;;;;10.60;3.22;;;;;;;30.99;46.09;101845.69;5003505;28;20080;-55
2022/10/04 12:03:08;;;;;;;10.05;3.47;;;;;;;29.29;47.73;101842.16;5024404;28;20038;-54
2022/10/04 12:05:56;;;;;;;8.90;3.78;;;;;;;30.38;46.31;101851.34;5001713;28;20054;-56
2022/10/04 12:08:28;;;;;;;7.10;4.10;;;;;;;30.03;46.62;101843.47;5010865;28;20064;-51
2022/10/04 12:14:55;;;;;;;6.30;3.10;;;;;;;32.48;39.83;101856.06;5004004;28;20043;-56
2022/10/04 12:17:47;;;;;;;14.40;3.90;;;;;;;32.19;41.06;101851.88;5017058;28;20034;-52
2022/10/04 12:20:16;;;;;;;7.95;3.03;;;;;;;31.90;41.99;101854.03;4999337;28;20129;-54
2022/10/04 12:23:23;;;;;;;8.27;2.92;;;;;;;31.85;41.57;101850.56;5011896;28;20035;-52
2022/10/04 12:26:30;;;;;;;8.30;2.78;;;;;;;32.72;41.61;101841.75;4957635;28;20042;-57